createdAt,value
2018-09-26T00:02:31.321Z,63.10
2018-09-26T00:05:00.680Z,63.00
2018-09-26T00:07:29.476Z,63.00
2018-09-26T00:09:58.857Z,63.60
2018-09-26T00:12:27.890Z,63.00
2018-09-26T00:14:57.307Z,62.90
2018-09-26T00:17:27.214Z,62.70
2018-09-26T00:19:56.242Z,62.80
2018-09-26T00:22:25.265Z,63.10
2018-09-26T00:24:54.511Z,62.90
2018-09-26T00:27:23.239Z,62.80
2018-09-26T00:29:53.258Z,62.80
2018-09-26T00:32:21.933Z,63.00
2018-09-26T00:34:51.643Z,63.10
2018-09-26T00:37:20.223Z,63.30
2018-09-26T00:39:48.949Z,63.20
2018-09-26T00:42:17.838Z,63.10
2018-09-26T00:44:46.451Z,62.90
2018-09-26T00:47:15.031Z,62.90
2018-09-26T00:49:43.951Z,63.10
2018-09-26T00:52:12.636Z,63.20
2018-09-26T00:54:41.123Z,63.10
2018-09-26T00:57:09.871Z,63.80
2018-09-26T00:59:38.465Z,63.00
2018-09-26T01:02:07.572Z,62.70
2018-09-26T01:04:36.479Z,62.80
2018-09-26T01:07:05.121Z,62.90
2018-09-26T01:09:33.874Z,62.70
2018-09-26T01:12:02.900Z,62.70
2018-09-26T01:14:31.321Z,62.60
2018-09-26T01:17:00.104Z,62.60
2018-09-26T01:19:28.736Z,62.50
2018-09-26T01:21:57.770Z,62.40
2018-09-26T01:24:26.409Z,62.40
2018-09-26T01:26:54.987Z,62.60
2018-09-26T01:29:24.670Z,62.60
2018-09-26T01:31:53.849Z,62.80
2018-09-26T01:34:22.732Z,62.40
2018-09-26T01:36:51.786Z,62.10
2018-09-26T01:39:20.439Z,62.40
2018-09-26T01:41:48.879Z,62.70
2018-09-26T01:44:17.306Z,63.10
2018-09-26T01:46:45.812Z,63.30
2018-09-26T01:49:14.340Z,63.10
2018-09-26T01:51:42.884Z,63.00
2018-09-26T01:54:11.431Z,63.10
2018-09-26T01:56:40.171Z,62.80
2018-09-26T01:59:09.418Z,62.90
2018-09-26T02:01:38.033Z,63.00
2018-09-26T02:04:06.542Z,63.00
2018-09-26T02:06:35.199Z,63.00
2018-09-26T02:09:06.510Z,63.00
2018-09-26T02:11:35.152Z,63.00
2018-09-26T02:14:05.080Z,62.90
2018-09-26T02:16:33.518Z,63.00
2018-09-26T02:19:01.914Z,62.60
2018-09-26T02:21:30.390Z,62.50
2018-09-26T02:24:01.192Z,62.40
2018-09-26T02:26:29.528Z,61.80
2018-09-26T02:28:57.930Z,60.90
2018-09-26T02:31:26.287Z,61.00
2018-09-26T02:33:54.769Z,61.10
2018-09-26T02:36:23.135Z,61.40
2018-09-26T02:38:51.578Z,61.50
2018-09-26T02:41:19.925Z,61.50
2018-09-26T02:43:48.323Z,61.70
2018-09-26T02:46:16.664Z,62.00
2018-09-26T02:48:50.453Z,62.20
2018-09-26T02:51:18.809Z,62.40
2018-09-26T02:53:47.519Z,62.40
2018-09-26T02:56:15.999Z,62.40
2018-09-26T02:58:44.370Z,62.10
2018-09-26T03:01:12.758Z,61.90
2018-09-26T03:03:41.146Z,62.10
2018-09-26T03:06:09.562Z,62.20
2018-09-26T03:08:38.903Z,62.40
2018-09-26T03:11:08.754Z,62.80
2018-09-26T03:13:37.399Z,63.10
2018-09-26T03:16:06.979Z,63.20
2018-09-26T03:18:35.550Z,63.20
2018-09-26T03:21:03.967Z,63.20
2018-09-26T03:23:32.598Z,63.20
2018-09-26T03:26:00.995Z,63.00
2018-09-26T03:28:29.335Z,63.20
2018-09-26T03:30:57.759Z,63.20
2018-09-26T03:33:26.123Z,63.00
2018-09-26T03:35:54.492Z,63.70
2018-09-26T03:38:23.667Z,63.10
2018-09-26T03:40:52.035Z,63.20
2018-09-26T03:43:20.438Z,63.20
2018-09-26T03:45:48.881Z,63.30
2018-09-26T03:48:17.256Z,63.20
2018-09-26T03:50:45.648Z,63.20
2018-09-26T03:53:14.050Z,63.40
2018-09-26T03:55:42.428Z,63.40
2018-09-26T03:58:11.015Z,63.40
2018-09-26T04:00:39.383Z,63.10
2018-09-26T04:03:07.735Z,62.60
2018-09-26T04:05:36.104Z,62.80
2018-09-26T04:08:05.877Z,63.10
2018-09-26T04:10:36.355Z,62.60
2018-09-26T04:13:05.875Z,62.00
2018-09-26T04:15:40.154Z,61.90
2018-09-26T04:18:08.510Z,62.00
2018-09-26T04:20:36.932Z,62.00
2018-09-26T04:23:05.368Z,62.00
2018-09-26T04:25:33.962Z,62.10
2018-09-26T04:28:02.608Z,62.10
2018-09-26T04:30:37.357Z,62.30
2018-09-26T04:33:55.640Z,62.90
2018-09-26T04:36:24.072Z,62.30
2018-09-26T04:38:52.725Z,62.40
2018-09-26T04:41:21.162Z,62.70
2018-09-26T04:43:49.558Z,64.00
2018-09-26T04:46:17.990Z,63.00
2018-09-26T04:48:46.364Z,64.00
2018-09-26T04:51:14.730Z,64.10
2018-09-26T04:53:43.456Z,63.00
2018-09-26T04:56:11.828Z,64.10
2018-09-26T04:58:40.183Z,64.10
2018-09-26T05:01:08.634Z,64.30
2018-09-26T05:03:36.987Z,64.60
2018-09-26T05:06:05.420Z,64.80
2018-09-26T05:08:33.770Z,64.90
2018-09-26T05:11:02.148Z,64.90
2018-09-26T05:13:30.554Z,65.10
2018-09-26T05:15:58.927Z,65.00
2018-09-26T05:18:27.391Z,64.80
2018-09-26T05:20:56.435Z,64.80
2018-09-26T05:23:24.840Z,64.80
2018-09-26T05:25:53.259Z,64.90
2018-09-26T05:28:21.631Z,65.00
2018-09-26T05:30:49.979Z,65.10
2018-09-26T05:33:18.380Z,65.20
2018-09-26T05:35:46.736Z,65.30
2018-09-26T05:38:15.139Z,65.10
2018-09-26T05:40:43.786Z,64.90
2018-09-26T05:43:12.142Z,65.10
2018-09-26T05:45:40.511Z,65.20
2018-09-26T05:48:09.227Z,65.30
2018-09-26T05:50:38.803Z,65.50
2018-09-26T05:53:08.294Z,65.70
2018-09-26T05:55:38.589Z,65.90
2018-09-26T05:58:06.934Z,65.80
2018-09-26T06:00:35.340Z,66.00
2018-09-26T06:03:03.775Z,66.20
2018-09-26T06:05:32.249Z,66.40
2018-09-26T06:08:00.558Z,66.30
2018-09-26T06:10:28.938Z,66.20
2018-09-26T06:12:57.361Z,65.90
2018-09-26T06:15:25.870Z,65.10
2018-09-26T06:17:56.173Z,65.30
2018-09-26T06:20:24.599Z,65.50
2018-09-26T06:22:53.424Z,66.00
2018-09-26T06:25:21.960Z,66.10
2018-09-26T06:27:50.312Z,65.80
2018-09-26T06:30:18.683Z,65.50
2018-09-26T06:32:47.055Z,65.60
2018-09-26T06:35:15.487Z,64.70
2018-09-26T06:37:43.928Z,65.10
2018-09-26T06:40:12.338Z,63.90
2018-09-26T06:42:40.827Z,63.10
2018-09-26T06:45:09.663Z,62.60
2018-09-26T06:47:38.433Z,62.80
2018-09-26T06:50:06.773Z,63.10
2018-09-26T06:52:35.315Z,62.80
2018-09-26T06:55:03.793Z,61.50
2018-09-26T06:57:32.383Z,61.00
2018-09-26T07:00:00.741Z,60.30
2018-09-26T07:02:29.350Z,60.10
2018-09-26T07:04:57.861Z,59.70
2018-09-26T07:07:26.293Z,59.70
2018-09-26T07:09:54.656Z,59.30
2018-09-26T07:12:23.363Z,59.70
2018-09-26T07:14:51.895Z,59.80
2018-09-26T07:17:20.958Z,60.00
2018-09-26T07:19:49.379Z,60.10
2018-09-26T07:22:17.792Z,60.00
2018-09-26T07:24:46.221Z,60.00
2018-09-26T07:27:14.709Z,60.00
2018-09-26T07:29:43.071Z,60.00
2018-09-26T07:32:11.520Z,60.00
2018-09-26T07:34:40.215Z,59.70
2018-09-26T07:37:09.327Z,58.70
2018-09-26T07:39:38.475Z,58.90
2018-09-26T07:42:06.975Z,59.20
2018-09-26T07:44:36.056Z,58.70
2018-09-26T07:47:05.081Z,58.90
2018-09-26T07:49:33.565Z,58.90
2018-09-26T07:52:01.971Z,58.60
2018-09-26T07:54:30.342Z,58.60
2018-09-26T07:56:58.877Z,58.40
2018-09-26T07:59:27.422Z,58.40
2018-09-26T08:01:55.795Z,57.80
2018-09-26T08:04:24.219Z,57.90
2018-09-26T08:06:53.167Z,57.60
2018-09-26T08:09:21.535Z,57.20
2018-09-26T08:11:50.468Z,56.30
2018-09-26T08:14:18.767Z,56.70
2018-09-26T08:16:47.146Z,56.70
2018-09-26T08:19:15.690Z,55.90
2018-09-26T08:21:44.106Z,56.00
2018-09-26T08:24:12.668Z,56.10
2018-09-26T08:26:41.018Z,55.50
2018-09-26T08:29:09.529Z,55.10
2018-09-26T08:31:37.914Z,55.20
2018-09-26T08:34:06.578Z,53.90
2018-09-26T08:36:34.956Z,53.70
2018-09-26T08:39:03.868Z,53.60
2018-09-26T08:41:32.288Z,53.80
2018-09-26T08:44:00.809Z,53.40
2018-09-26T08:46:29.150Z,53.40
2018-09-26T08:48:59.817Z,53.60
2018-09-26T08:51:29.283Z,53.60
2018-09-26T08:53:58.053Z,53.60
2018-09-26T08:56:28.616Z,53.30
2018-09-26T08:58:56.998Z,52.90
2018-09-26T09:01:30.786Z,53.40
2018-09-26T09:03:59.188Z,53.60
2018-09-26T09:06:27.560Z,52.80
2018-09-26T09:08:55.987Z,53.30
2018-09-26T09:11:24.523Z,53.70
2018-09-26T09:13:52.977Z,53.20
2018-09-26T09:16:21.391Z,52.70
2018-09-26T09:18:49.762Z,52.80
2018-09-26T09:21:18.250Z,52.70
2018-09-26T09:23:46.642Z,52.80
2018-09-26T09:26:15.876Z,52.60
2018-09-26T09:28:46.203Z,52.70
2018-09-26T09:31:16.911Z,53.00
2018-09-26T09:33:45.446Z,53.20
2018-09-26T09:36:13.810Z,52.70
2018-09-26T09:38:43.015Z,53.10
2018-09-26T09:41:11.352Z,52.90
2018-09-26T09:43:39.792Z,52.20
2018-09-26T09:46:08.183Z,51.40
2018-09-26T09:48:36.814Z,50.70
2018-09-26T09:51:05.515Z,51.30
2018-09-26T09:53:34.649Z,52.30
2018-09-26T09:56:03.053Z,51.40
2018-09-26T09:58:31.990Z,50.60
2018-09-26T10:01:05.788Z,50.50
2018-09-26T10:03:34.259Z,50.10
2018-09-26T10:06:02.614Z,50.70
2018-09-26T10:08:31.020Z,51.00
2018-09-26T10:11:00.296Z,48.80
2018-09-26T10:13:29.221Z,49.60
2018-09-26T10:15:57.612Z,49.50
2018-09-26T10:18:27.366Z,49.30
2018-09-26T10:20:57.335Z,49.20
2018-09-26T10:23:26.266Z,49.20
2018-09-26T10:25:56.926Z,48.10
2018-09-26T10:28:25.270Z,48.50
2018-09-26T10:30:53.582Z,49.10
2018-09-26T10:33:22.423Z,48.30
2018-09-26T10:35:50.747Z,48.60
2018-09-26T10:38:19.189Z,48.00
2018-09-26T10:40:47.452Z,48.10
2018-09-26T10:43:15.963Z,48.00
2018-09-26T10:45:44.279Z,47.40
2018-09-26T10:48:12.733Z,47.40
2018-09-26T10:50:41.107Z,47.90
2018-09-26T10:53:09.466Z,46.90
2018-09-26T10:55:38.029Z,46.90
2018-09-26T10:58:06.347Z,47.40
2018-09-26T11:00:34.691Z,46.10
2018-09-26T11:03:03.088Z,45.30
2018-09-26T11:05:31.443Z,46.30
2018-09-26T11:08:00.333Z,44.80
2018-09-26T11:10:28.708Z,44.00
2018-09-26T11:12:57.292Z,44.70
2018-09-26T11:15:25.724Z,44.30
2018-09-26T11:17:55.992Z,44.20
2018-09-26T11:20:24.395Z,44.60
2018-09-26T11:22:53.283Z,44.10
2018-09-26T11:25:21.607Z,44.00
2018-09-26T11:27:49.954Z,43.60
2018-09-26T11:30:18.318Z,42.60
2018-09-26T11:32:46.654Z,42.10
2018-09-26T11:35:15.006Z,42.70
2018-09-26T11:37:45.027Z,42.40
2018-09-26T11:40:15.379Z,42.00
2018-09-26T11:42:44.182Z,42.40
2018-09-26T11:45:14.229Z,42.50
2018-09-26T11:47:42.567Z,41.30
2018-09-26T11:50:11.180Z,41.70
2018-09-26T11:52:39.464Z,41.00
2018-09-26T11:55:08.684Z,41.20
2018-09-26T11:57:37.249Z,39.90
2018-09-26T12:00:05.667Z,39.60
2018-09-26T12:02:34.181Z,39.70
2018-09-26T12:05:02.355Z,39.70
2018-09-26T12:07:30.794Z,38.40
2018-09-26T12:09:59.128Z,38.40
2018-09-26T12:12:27.454Z,37.70
2018-09-26T12:14:55.776Z,37.80
2018-09-26T12:17:24.088Z,38.10
2018-09-26T12:19:52.422Z,38.30
2018-09-26T12:22:20.903Z,39.30
2018-09-26T12:24:49.186Z,38.10
2018-09-26T12:27:17.494Z,39.10
2018-09-26T12:29:45.914Z,37.10
2018-09-26T12:32:15.259Z,36.90
2018-09-26T12:34:43.900Z,36.50
2018-09-26T12:37:12.732Z,36.30
2018-09-26T12:39:41.439Z,37.00
2018-09-26T12:42:09.846Z,37.10
2018-09-26T12:44:38.206Z,36.30
2018-09-26T12:47:06.898Z,37.10
2018-09-26T12:49:35.207Z,35.90
2018-09-26T12:52:03.631Z,36.30
2018-09-26T12:54:31.895Z,34.80
2018-09-26T12:57:00.293Z,34.60
2018-09-26T12:59:28.832Z,34.30
2018-09-26T13:01:57.134Z,34.60
2018-09-26T13:04:26.388Z,34.80
2018-09-26T13:06:54.663Z,34.60
2018-09-26T13:09:23.032Z,34.40
2018-09-26T13:11:51.778Z,35.00
2018-09-26T13:14:20.328Z,34.70
2018-09-26T13:16:48.738Z,34.80
2018-09-26T13:19:17.207Z,34.70
2018-09-26T13:21:45.532Z,33.60
2018-09-26T13:24:14.045Z,33.00
2018-09-26T13:26:42.320Z,33.10
2018-09-26T13:29:10.691Z,33.30
2018-09-26T13:31:39.050Z,33.40
2018-09-26T13:34:07.435Z,33.20
2018-09-26T13:36:35.803Z,33.20
2018-09-26T13:39:05.665Z,33.60
2018-09-26T13:41:34.002Z,34.00
2018-09-26T13:44:02.351Z,33.90
2018-09-26T13:46:30.766Z,34.30
2018-09-26T13:48:59.415Z,34.40
2018-09-26T13:51:27.760Z,35.10
2018-09-26T13:53:56.326Z,34.00
2018-09-26T13:56:24.864Z,33.50
2018-09-26T13:58:53.164Z,34.10
2018-09-26T14:01:21.631Z,33.90
2018-09-26T14:03:49.997Z,33.50
2018-09-26T14:06:18.492Z,33.50
2018-09-26T14:08:46.824Z,33.50
2018-09-26T14:11:15.154Z,33.50
2018-09-26T14:13:43.481Z,33.90
2018-09-26T14:16:12.103Z,32.60
2018-09-26T14:18:40.405Z,32.30
2018-09-26T14:21:08.758Z,33.30
2018-09-26T14:23:37.212Z,33.30
2018-09-26T14:26:05.569Z,32.00
2018-09-26T14:28:33.837Z,31.60
2018-09-26T14:31:02.275Z,30.40
2018-09-26T14:33:31.152Z,30.70
2018-09-26T14:35:59.607Z,31.10
2018-09-26T14:38:27.939Z,31.40
2018-09-26T14:40:56.342Z,30.50
2018-09-26T14:43:24.678Z,30.50
2018-09-26T14:45:53.140Z,30.70
2018-09-26T14:48:21.504Z,30.50
2018-09-26T14:50:49.864Z,30.80
2018-09-26T14:53:18.433Z,30.40
2018-09-26T14:55:46.760Z,29.90
2018-09-26T14:58:15.239Z,31.10
2018-09-26T15:00:43.515Z,30.60
2018-09-26T15:03:12.072Z,30.60
2018-09-26T15:05:40.467Z,30.80
2018-09-26T15:08:08.885Z,30.70
2018-09-26T15:10:37.259Z,30.40
2018-09-26T15:13:06.038Z,30.40
2018-09-26T15:15:34.547Z,30.50
2018-09-26T15:18:04.254Z,30.90
2018-09-26T15:20:32.725Z,31.10
2018-09-26T15:23:01.057Z,30.90
2018-09-26T15:25:34.035Z,30.90
2018-09-26T15:28:03.422Z,30.50
2018-09-26T15:30:31.730Z,29.90
2018-09-26T15:40:06.979Z,30.20
2018-09-26T15:42:35.707Z,31.60
2018-09-26T15:45:04.280Z,30.50
2018-09-26T15:47:32.717Z,30.40
2018-09-26T15:50:01.288Z,29.80
2018-09-26T15:52:32.640Z,29.60
2018-09-26T15:55:01.179Z,29.30
2018-09-26T15:57:30.635Z,29.70
2018-09-26T15:59:59.010Z,29.70
2018-09-26T16:02:27.508Z,29.10
2018-09-26T16:04:56.004Z,29.70
2018-09-26T16:07:24.390Z,29.40
2018-09-26T16:09:52.711Z,29.40
2018-09-26T16:12:21.208Z,29.50
2018-09-26T16:14:49.836Z,29.70
2018-09-26T16:17:19.220Z,30.40
2018-09-26T16:19:48.023Z,30.10
2018-09-26T16:22:17.322Z,30.00
2018-09-26T16:24:46.527Z,30.20
2018-09-26T16:27:14.896Z,30.40
2018-09-26T16:29:43.584Z,30.60
2018-09-26T16:32:13.192Z,31.00
2018-09-26T16:34:41.524Z,30.70
2018-09-26T16:37:10.523Z,31.10
2018-09-26T16:39:39.270Z,31.30
2018-09-26T16:42:07.601Z,31.60
2018-09-26T16:44:36.109Z,32.20
2018-09-26T16:47:04.491Z,31.90
2018-09-26T16:49:32.819Z,32.60
2018-09-26T16:52:02.024Z,32.60
2018-09-26T16:54:30.329Z,32.70
2018-09-26T16:56:59.084Z,33.10
2018-09-26T16:59:27.553Z,33.20
2018-09-26T17:01:58.762Z,33.40
2018-09-26T17:04:27.196Z,33.60
2018-09-26T17:06:55.606Z,34.00
2018-09-26T17:09:24.021Z,34.00
2018-09-26T17:11:52.349Z,34.40
2018-09-26T17:14:20.739Z,34.60
2018-09-26T17:16:49.119Z,35.00
2018-09-26T17:19:20.833Z,34.90
2018-09-26T17:21:49.151Z,35.30
2018-09-26T17:24:19.070Z,35.40
2018-09-26T17:26:47.465Z,35.80
2018-09-26T17:29:16.049Z,35.40
2018-09-26T17:31:45.226Z,35.60
2018-09-26T17:34:13.653Z,36.40
2018-09-26T17:36:42.154Z,37.50
2018-09-26T17:39:10.861Z,36.20
2018-09-26T17:41:39.387Z,36.90
2018-09-26T17:44:07.959Z,37.40
2018-09-26T17:46:36.302Z,37.30
2018-09-26T17:49:04.831Z,38.70
2018-09-26T17:51:33.163Z,38.20
2018-09-26T17:54:01.658Z,38.00
2018-09-26T17:56:30.020Z,39.80
2018-09-26T17:58:58.668Z,40.00
2018-09-26T18:01:27.245Z,40.60
2018-09-26T18:03:55.699Z,41.30
2018-09-26T18:06:24.284Z,41.50
2018-09-26T18:08:52.944Z,42.30
2018-09-26T18:11:21.724Z,41.10
2018-09-26T18:13:50.217Z,41.80
2018-09-26T18:16:18.714Z,42.70
2018-09-26T18:18:47.154Z,43.30
2018-09-26T18:21:15.608Z,44.20
2018-09-26T18:23:44.128Z,44.10
2018-09-26T18:26:12.541Z,44.00
2018-09-26T18:28:41.006Z,44.20
2018-09-26T18:31:09.868Z,44.70
2018-09-26T18:33:38.500Z,45.00
2018-09-26T18:36:07.401Z,45.70
2018-09-26T18:38:35.879Z,45.40
2018-09-26T18:41:04.184Z,45.20
2018-09-26T18:43:32.574Z,45.30
2018-09-26T18:46:00.923Z,45.40
2018-09-26T18:48:29.353Z,45.40
2018-09-26T18:50:57.765Z,46.60
2018-09-26T18:53:26.189Z,47.20
2018-09-26T18:55:55.299Z,47.20
2018-09-26T18:58:23.672Z,46.80
2018-09-26T19:00:52.097Z,47.00
2018-09-26T19:03:20.478Z,46.40
2018-09-26T19:05:49.066Z,47.90
2018-09-26T19:08:17.773Z,48.40
2018-09-26T19:10:46.351Z,49.20
2018-09-26T19:13:14.748Z,49.60
2018-09-26T19:15:43.264Z,50.00
2018-09-26T19:18:14.269Z,50.20
2018-09-26T19:20:42.621Z,48.20
2018-09-26T19:23:11.091Z,48.50
2018-09-26T19:25:39.811Z,49.20
2018-09-26T19:28:08.309Z,49.10
2018-09-26T19:30:37.189Z,49.10
2018-09-26T19:33:05.903Z,49.10
2018-09-26T19:35:34.349Z,49.10
2018-09-26T19:38:02.905Z,48.70
2018-09-26T19:40:31.277Z,47.00
2018-09-26T19:42:59.732Z,46.00
2018-09-26T19:45:29.266Z,45.70
2018-09-26T19:47:57.848Z,45.90
2018-09-26T19:50:27.464Z,45.80
2018-09-26T19:52:55.912Z,46.50
2018-09-26T19:55:24.437Z,46.40
2018-09-26T19:57:53.635Z,47.00
2018-09-26T20:00:22.058Z,46.60
2018-09-26T20:02:50.508Z,46.00
2018-09-26T20:05:19.080Z,45.50
2018-09-26T20:07:47.785Z,45.30
2018-09-26T20:10:16.411Z,45.50
2018-09-26T20:12:44.820Z,45.70
2018-09-26T20:15:13.239Z,45.60
2018-09-26T20:17:41.607Z,45.40
2018-09-26T20:20:10.350Z,45.20
2018-09-26T20:22:38.791Z,44.90
2018-09-26T20:25:08.088Z,45.20
2018-09-26T20:27:37.876Z,45.40
2018-09-26T20:30:07.683Z,45.40
2018-09-26T20:32:36.249Z,45.00
2018-09-26T20:35:05.354Z,44.90
2018-09-26T20:37:34.178Z,44.80
2018-09-26T20:40:03.188Z,45.00
2018-09-26T20:42:32.296Z,45.10
2018-09-26T20:45:01.527Z,45.20
2018-09-26T20:47:31.669Z,44.90
2018-09-26T20:50:01.281Z,44.80
2018-09-26T20:52:30.545Z,45.20
2018-09-26T20:54:59.806Z,44.90
2018-09-26T20:57:30.258Z,45.10
2018-09-26T20:59:59.656Z,44.90
2018-09-26T21:02:29.528Z,45.00
2018-09-26T21:04:57.994Z,44.60
2018-09-26T21:07:26.386Z,44.90
2018-09-26T21:09:55.735Z,45.00
2018-09-26T21:12:24.214Z,45.00
2018-09-26T21:14:52.618Z,45.00
2018-09-26T21:17:22.626Z,45.70
2018-09-26T21:19:51.361Z,46.00
2018-09-26T21:22:19.898Z,46.40
2018-09-26T21:24:48.306Z,45.80
2018-09-26T21:27:16.813Z,45.40
2018-09-26T21:29:45.165Z,46.80
2018-09-26T21:32:13.617Z,47.00
2018-09-26T21:34:42.133Z,46.80
2018-09-26T21:37:10.548Z,46.70
2018-09-26T21:39:38.944Z,46.50
2018-09-26T21:42:07.328Z,46.60
2018-09-26T21:44:35.698Z,46.60
2018-09-26T21:47:04.307Z,46.30
2018-09-26T21:49:33.702Z,46.20
2018-09-26T21:52:02.064Z,46.30
2018-09-26T21:54:30.467Z,47.40
2018-09-26T21:56:58.912Z,49.10
2018-09-26T21:59:27.386Z,49.10
2018-09-26T22:01:56.055Z,47.90
2018-09-26T22:04:24.523Z,47.60
2018-09-26T22:06:53.006Z,48.80
2018-09-26T22:09:21.487Z,50.10
2018-09-26T22:11:49.976Z,50.50
2018-09-26T22:14:18.439Z,50.80
2018-09-26T22:16:46.894Z,50.90
2018-09-26T22:19:15.470Z,51.50
2018-09-26T22:21:43.938Z,51.00
2018-09-26T22:24:12.582Z,51.20
2018-09-26T22:26:41.095Z,52.00
2018-09-26T22:29:10.102Z,52.80
2018-09-26T22:31:38.619Z,52.80
2018-09-26T22:34:07.343Z,52.50
2018-09-26T22:36:35.897Z,51.80
2018-09-26T22:39:06.395Z,51.30
2018-09-26T22:41:34.910Z,51.00
2018-09-26T22:44:03.440Z,50.70
2018-09-26T22:46:31.951Z,50.90
2018-09-26T22:49:00.868Z,51.30
2018-09-26T22:51:29.439Z,51.50
2018-09-26T22:53:58.079Z,52.60
2018-09-26T22:56:26.515Z,51.80
2018-09-26T22:58:54.943Z,51.30
2018-09-26T23:01:23.932Z,51.80
2018-09-26T23:03:52.572Z,51.70
2018-09-26T23:06:21.042Z,51.90
2018-09-26T23:08:49.479Z,52.00
2018-09-26T23:11:17.948Z,50.60
2018-09-26T23:13:46.504Z,50.70
2018-09-26T23:16:15.322Z,50.80
2018-09-26T23:18:43.775Z,50.80
2018-09-26T23:21:12.430Z,50.20
2018-09-26T23:23:40.863Z,50.40
2018-09-26T23:26:09.543Z,51.40
2018-09-26T23:28:38.130Z,50.90
2018-09-26T23:31:07.455Z,51.00
2018-09-26T23:33:35.891Z,53.00
2018-09-26T23:36:04.362Z,51.80
2018-09-26T23:38:32.826Z,52.20
2018-09-26T23:41:01.262Z,51.80
2018-09-26T23:43:29.675Z,51.00
2018-09-26T23:45:58.131Z,50.80
2018-09-26T23:48:26.536Z,50.90
2018-09-26T23:50:54.999Z,52.10
2018-09-26T23:53:23.548Z,51.70
2018-09-26T23:55:52.041Z,51.30
2018-09-26T23:58:20.707Z,50.70
